Time;durP1;ratioP1;P1;durP2;ratioP2;P2;SDS_P1;SDS_P2;PMS_P1;PMS_P2;Temp;Humidity;BMP_temperature;BMP_pressure;BME280_temperature;BME280_humidity;BME280_pressure;Samples;Min_cycle;Max_cycle;Signal;HPM_P1;HPM_P2
2021/05/09 00:01:15;;;;;;;2.63;2.42;;;10.70;69.20;;;;;;5033338;28;20032;-68
2021/05/09 00:03:41;;;;;;;3.03;2.30;;;10.70;69.30;;;;;;5052797;28;20025;-68
2021/05/09 00:06:06;;;;;;;4.18;2.70;;;10.60;69.40;;;;;;5048732;28;20029;-68
2021/05/09 00:08:32;;;;;;;4.70;2.47;;;10.60;69.50;;;;;;5049252;28;20041;-68
2021/05/09 00:10:58;;;;;;;2.80;2.53;;;10.60;69.60;;;;;;5045587;28;20057;-68
2021/05/09 00:13:23;;;;;;;2.35;2.15;;;10.60;69.60;;;;;;5050624;28;20116;-68
2021/05/09 00:15:50;;;;;;;3.20;2.22;;;10.50;69.50;;;;;;5042724;28;20033;-68
2021/05/09 00:18:16;;;;;;;4.03;2.30;;;10.50;69.50;;;;;;5049069;28;20109;-67
2021/05/09 00:20:41;;;;;;;3.05;2.33;;;10.40;69.30;;;;;;5053649;28;20116;-67
2021/05/09 00:23:07;;;;;;;2.53;2.22;;;10.40;69.40;;;;;;5048722;28;20040;-68
2021/05/09 00:25:33;;;;;;;2.15;1.95;;;10.30;69.30;;;;;;5043430;28;20084;-68
2021/05/09 00:27:58;;;;;;;2.58;2.25;;;10.20;69.30;;;;;;5043343;28;20104;-68
2021/05/09 00:30:24;;;;;;;2.85;2.35;;;10.10;69.40;;;;;;5050606;28;20033;-68
2021/05/09 00:32:49;;;;;;;3.35;2.45;;;10.10;69.60;;;;;;5051937;28;20033;-68
2021/05/09 00:35:15;;;;;;;3.47;2.20;;;10.00;69.80;;;;;;5050247;28;20476;-67
2021/05/09 00:37:41;;;;;;;2.47;2.28;;;10.00;70.10;;;;;;5050860;28;20033;-68
2021/05/09 00:40:07;;;;;;;3.30;2.20;;;9.90;70.40;;;;;;5051491;28;20029;-68
2021/05/09 00:42:33;;;;;;;4.55;2.20;;;9.90;70.60;;;;;;5051583;28;20059;-68
2021/05/09 00:44:59;;;;;;;5.45;2.53;;;9.90;70.70;;;;;;5049433;28;20028;-68
2021/05/09 00:47:24;;;;;;;4.00;2.63;;;9.90;70.70;;;;;;5035000;28;20037;-68
2021/05/09 00:49:50;;;;;;;4.05;2.20;;;9.80;70.60;;;;;;5045982;28;20033;-68
2021/05/09 00:52:16;;;;;;;2.60;2.08;;;9.80;70.80;;;;;;5050538;28;20369;-67
2021/05/09 00:54:50;;;;;;;5.95;2.30;;;9.70;70.90;;;;;;5049893;28;21661;-68
2021/05/09 00:57:17;;;;;;;2.53;2.28;;;9.70;71.00;;;;;;5048773;28;20116;-68
2021/05/09 00:59:44;;;;;;;2.97;2.38;;;9.70;71.00;;;;;;5049007;28;20021;-68
2021/05/09 01:02:12;;;;;;;2.25;2.05;;;9.70;71.10;;;;;;5050340;28;20448;-68
2021/05/09 01:04:39;;;;;;;2.33;2.10;;;9.60;71.20;;;;;;5031580;28;20724;-68
2021/05/09 01:07:05;;;;;;;2.15;2.03;;;9.60;71.20;;;;;;5049543;28;20711;-68
2021/05/09 01:09:31;;;;;;;2.72;2.03;;;9.60;71.30;;;;;;5033471;28;20032;-68
2021/05/09 01:11:56;;;;;;;2.20;2.00;;;9.60;71.40;;;;;;5050312;28;20032;-68
2021/05/09 01:14:22;;;;;;;3.92;2.25;;;9.60;71.50;;;;;;5047404;28;20033;-67
2021/05/09 01:16:48;;;;;;;2.95;2.20;;;9.50;71.50;;;;;;5039851;28;20028;-68
2021/05/09 01:19:13;;;;;;;2.58;2.10;;;9.50;71.60;;;;;;5049434;28;20021;-68
2021/05/09 01:21:39;;;;;;;3.17;2.22;;;9.50;71.70;;;;;;5049646;28;20319;-68
2021/05/09 01:24:05;;;;;;;2.17;1.98;;;9.40;71.60;;;;;;5051317;28;20025;-69
2021/05/09 01:26:31;;;;;;;4.30;2.30;;;9.40;71.50;;;;;;5050296;28;20082;-68
2021/05/09 01:28:56;;;;;;;4.18;2.33;;;9.40;71.60;;;;;;5049866;28;20037;-67
2021/05/09 01:31:22;;;;;;;2.22;2.03;;;9.30;71.60;;;;;;5049382;28;20086;-68
2021/05/09 01:33:48;;;;;;;2.20;1.83;;;9.30;71.60;;;;;;5049974;28;20088;-68
2021/05/09 01:36:13;;;;;;;3.63;2.20;;;9.30;71.80;;;;;;5049071;28;20055;-69
2021/05/09 01:38:39;;;;;;;2.42;2.00;;;9.30;71.90;;;;;;5050481;28;20155;-68
2021/05/09 01:41:04;;;;;;;3.03;2.22;;;9.20;72.00;;;;;;5050410;28;20043;-68
2021/05/09 01:43:36;;;;;;;2.33;1.98;;;9.20;72.60;;;;;;5049442;28;20388;-68
2021/05/09 01:46:02;;;;;;;2.47;2.13;;;9.20;72.10;;;;;;5045308;28;20501;-68
2021/05/09 01:48:28;;;;;;;2.50;2.30;;;9.20;72.00;;;;;;5049174;28;20211;-68
2021/05/09 01:50:54;;;;;;;2.85;2.05;;;9.20;72.00;;;;;;5049872;28;20511;-68
2021/05/09 01:53:19;;;;;;;3.20;1.95;;;9.10;72.00;;;;;;5049748;28;20033;-68
2021/05/09 01:55:45;;;;;;;2.47;2.25;;;9.10;72.20;;;;;;5048063;28;20028;-67
2021/05/09 01:58:11;;;;;;;2.97;2.00;;;9.10;72.20;;;;;;5048693;28;20027;-68
2021/05/09 02:00:36;;;;;;;2.90;2.30;;;9.10;72.30;;;;;;5049309;28;20036;-68
2021/05/09 02:03:02;;;;;;;2.17;1.77;;;9.10;72.40;;;;;;5049617;28;20075;-68
2021/05/09 02:05:28;;;;;;;2.63;2.10;;;9.10;72.40;;;;;;5031003;28;20029;-68
2021/05/09 02:07:53;;;;;;;4.05;2.22;;;9.00;72.40;;;;;;5049975;28;20029;-68
2021/05/09 02:10:19;;;;;;;2.10;1.75;;;9.10;72.70;;;;;;5048393;28;20031;-67
2021/05/09 02:12:45;;;;;;;2.30;2.10;;;9.00;72.60;;;;;;5048785;28;20033;-68
2021/05/09 02:15:11;;;;;;;2.95;1.85;;;9.00;72.90;;;;;;5047150;28;20031;-68
2021/05/09 02:17:36;;;;;;;3.22;2.30;;;9.00;73.00;;;;;;5046594;28;20029;-67
2021/05/09 02:20:06;;;;;;;2.95;2.60;;;9.00;73.00;;;;;;5049118;28;20453;-67
2021/05/09 02:22:33;;;;;;;3.25;2.60;;;9.00;73.10;;;;;;5048796;28;20127;-68
2021/05/09 02:24:59;;;;;;;3.08;2.78;;;8.90;72.90;;;;;;5048762;28;20394;-68
2021/05/09 02:27:24;;;;;;;3.00;2.70;;;9.00;72.90;;;;;;5049411;28;20096;-68
2021/05/09 02:29:50;;;;;;;3.47;3.10;;;8.90;72.70;;;;;;5049633;28;20021;-67
2021/05/09 02:32:15;;;;;;;4.75;3.38;;;8.90;72.60;;;;;;5049185;28;20036;-68
2021/05/09 02:34:41;;;;;;;6.85;3.60;;;8.80;72.70;;;;;;5048500;28;20637;-68
2021/05/09 02:37:07;;;;;;;5.78;3.70;;;8.70;72.90;;;;;;5031522;28;20021;-67
2021/05/09 02:39:33;;;;;;;4.22;3.60;;;8.70;73.20;;;;;;5050369;28;20385;-67
2021/05/09 02:41:59;;;;;;;4.93;3.83;;;8.60;73.30;;;;;;5048190;28;20029;-68
2021/05/09 02:44:25;;;;;;;3.80;3.42;;;8.60;73.50;;;;;;5047937;28;20040;-67
2021/05/09 02:46:50;;;;;;;4.05;3.47;;;8.70;73.70;;;;;;5044468;28;20029;-68
2021/05/09 02:49:16;;;;;;;3.60;3.30;;;8.70;73.70;;;;;;5049127;28;20109;-68
2021/05/09 02:51:41;;;;;;;4.68;3.78;;;8.70;73.80;;;;;;5031551;28;20029;-68
2021/05/09 02:54:07;;;;;;;5.85;3.88;;;8.70;73.90;;;;;;5048174;28;20570;-68
2021/05/09 02:56:33;;;;;;;4.72;3.83;;;8.60;73.80;;;;;;5047907;28;20025;-67
2021/05/09 02:58:58;;;;;;;5.00;4.15;;;8.60;73.90;;;;;;5049628;28;20029;-67
2021/05/09 03:01:24;;;;;;;6.55;4.47;;;8.60;73.90;;;;;;5048450;28;20116;-67
2021/05/09 03:03:50;;;;;;;6.85;4.28;;;8.60;74.00;;;;;;5048943;28;20029;-67
2021/05/09 03:06:15;;;;;;;5.95;3.80;;;8.60;74.00;;;;;;5048758;28;20060;-67
2021/05/09 03:08:41;;;;;;;5.18;4.18;;;8.60;74.10;;;;;;5049865;28;20045;-67
2021/05/09 03:11:07;;;;;;;3.75;3.22;;;8.60;74.20;;;;;;5049359;28;20496;-68
2021/05/09 03:13:32;;;;;;;3.88;3.25;;;8.60;74.20;;;;;;5034796;28;20028;-67
2021/05/09 03:15:59;;;;;;;3.25;2.95;;;8.60;74.30;;;;;;5050395;28;20025;-68
2021/05/09 03:18:26;;;;;;;3.70;2.85;;;8.60;74.20;;;;;;5051327;28;20091;-68
2021/05/09 03:20:52;;;;;;;4.25;3.00;;;8.50;74.30;;;;;;5052092;28;20115;-68
2021/05/09 03:23:18;;;;;;;4.13;2.80;;;8.50;74.40;;;;;;5054334;28;20100;-67
2021/05/09 03:25:45;;;;;;;2.50;2.30;;;8.50;74.40;;;;;;5032520;28;20055;-68
2021/05/09 03:28:10;;;;;;;5.53;2.58;;;8.40;74.50;;;;;;5052597;28;20385;-68
2021/05/09 03:30:36;;;;;;;2.50;2.30;;;8.40;74.40;;;;;;5052029;28;20025;-67
2021/05/09 03:33:01;;;;;;;2.83;2.13;;;8.40;74.60;;;;;;5052439;28;20551;-68
2021/05/09 03:35:27;;;;;;;2.17;1.90;;;8.40;74.70;;;;;;5051743;28;20028;-68
2021/05/09 03:37:53;;;;;;;2.28;2.08;;;8.40;74.70;;;;;;5052744;28;20033;-68
2021/05/09 03:40:18;;;;;;;2.38;2.17;;;8.40;74.70;;;;;;5052480;28;20052;-68
2021/05/09 03:42:44;;;;;;;3.35;2.13;;;8.40;74.70;;;;;;5052220;28;20504;-67
2021/05/09 03:45:10;;;;;;;2.42;2.20;;;8.40;74.70;;;;;;5045037;28;20071;-67
2021/05/09 03:47:37;;;;;;;2.35;2.15;;;8.40;74.80;;;;;;5049563;28;20029;-68
2021/05/09 03:50:04;;;;;;;2.33;2.10;;;8.40;74.90;;;;;;5051903;28;20027;-68
2021/05/09 03:52:30;;;;;;;2.30;2.13;;;8.40;74.90;;;;;;5052043;28;20021;-68
2021/05/09 03:54:55;;;;;;;2.90;2.10;;;8.40;74.90;;;;;;5050882;28;20025;-68
2021/05/09 03:57:21;;;;;;;2.75;2.03;;;8.40;74.90;;;;;;5052355;28;20185;-68
2021/05/09 03:59:46;;;;;;;3.63;2.35;;;8.40;75.50;;;;;;5050052;28;20045;-67
2021/05/09 04:02:12;;;;;;;1.73;1.63;;;8.40;74.90;;;;;;5052022;28;20048;-68
2021/05/09 04:04:38;;;;;;;3.75;2.10;;;8.30;75.10;;;;;;5050588;28;20029;-68
2021/05/09 04:07:04;;;;;;;2.00;1.80;;;8.30;75.10;;;;;;5052433;28;20024;-68
2021/05/09 04:09:29;;;;;;;2.50;1.92;;;8.30;75.20;;;;;;5051164;28;20021;-68
2021/05/09 04:11:55;;;;;;;2.28;2.08;;;8.30;75.30;;;;;;5052559;28;20028;-67
2021/05/09 04:14:20;;;;;;;2.20;2.00;;;8.30;75.20;;;;;;5148783;22;20046;-67
2021/05/09 04:16:46;;;;;;;2.17;2.00;;;8.30;75.20;;;;;;5083953;28;20100;-67
2021/05/09 04:19:12;;;;;;;1.83;1.73;;;8.30;75.40;;;;;;5079069;28;20119;-68
2021/05/09 04:21:37;;;;;;;2.70;2.28;;;8.30;75.40;;;;;;5053173;28;20020;-67
2021/05/09 04:24:03;;;;;;;1.90;1.73;;;8.40;75.60;;;;;;5068707;28;20033;-68
2021/05/09 04:26:29;;;;;;;2.08;1.88;;;8.30;75.50;;;;;;5064166;28;20024;-68
2021/05/09 04:28:54;;;;;;;2.08;1.88;;;8.40;75.60;;;;;;5076844;28;20020;-68
2021/05/09 04:31:20;;;;;;;4.70;2.20;;;8.40;75.80;;;;;;5071766;28;20111;-67
2021/05/09 04:33:46;;;;;;;3.67;1.88;;;8.40;76.30;;;;;;5070114;28;20048;-68
2021/05/09 04:36:11;;;;;;;5.78;1.98;;;8.40;75.80;;;;;;5050048;28;20107;-68
2021/05/09 04:38:37;;;;;;;4.35;1.70;;;8.40;75.80;;;;;;5070618;28;20040;-67
2021/05/09 04:41:02;;;;;;;1.80;1.52;;;8.50;76.00;;;;;;5064879;28;20025;-68
2021/05/09 04:43:28;;;;;;;2.47;2.05;;;8.50;75.90;;;;;;5053286;28;20024;-68
2021/05/09 04:45:56;;;;;;;1.73;1.52;;;8.60;75.90;;;;;;5052323;28;20480;-68
2021/05/09 04:48:23;;;;;;;2.05;1.70;;;8.70;76.10;;;;;;5070780;28;20111;-67
2021/05/09 04:50:49;;;;;;;1.95;1.80;;;8.70;75.90;;;;;;5071152;28;20024;-68
2021/05/09 04:53:25;;;;;;;2.70;1.65;;;8.80;75.80;;;;;;5068600;28;20031;-68
2021/05/09 04:55:52;;;;;;;1.90;1.70;;;8.90;76.00;;;;;;5045010;28;20048;-67
2021/05/09 04:58:17;;;;;;;1.88;1.70;;;9.00;76.10;;;;;;5069684;28;20369;-67
2021/05/09 05:00:43;;;;;;;2.28;1.80;;;9.10;76.10;;;;;;5071214;28;20023;-67
2021/05/09 05:03:08;;;;;;;2.28;1.70;;;9.20;76.10;;;;;;5052427;28;20036;-66
2021/05/09 05:05:34;;;;;;;2.25;1.73;;;9.30;76.40;;;;;;5065000;28;20633;-66
2021/05/09 05:08:00;;;;;;;3.15;1.63;;;9.50;76.20;;;;;;5069946;28;20512;-67
2021/05/09 05:10:25;;;;;;;2.50;1.65;;;9.50;76.10;;;;;;5071121;28;20028;-67
2021/05/09 05:12:51;;;;;;;1.60;1.50;;;9.70;76.70;;;;;;5070860;28;20103;-67
2021/05/09 05:15:17;;;;;;;1.98;1.77;;;9.80;76.20;;;;;;5048170;28;20021;-67
2021/05/09 05:17:43;;;;;;;3.05;1.50;;;9.90;76.10;;;;;;5070152;28;20028;-67
2021/05/09 05:20:09;;;;;;;1.65;1.50;;;10.00;76.00;;;;;;5068836;28;20024;-67
2021/05/09 05:22:34;;;;;;;3.47;1.63;;;10.10;75.90;;;;;;5069385;28;20032;-67
2021/05/09 05:25:00;;;;;;;1.77;1.33;;;10.30;76.00;;;;;;5069677;28;20032;-67
2021/05/09 05:27:25;;;;;;;1.60;1.50;;;10.40;76.00;;;;;;5067521;28;20028;-67
2021/05/09 05:29:51;;;;;;;2.17;1.70;;;10.60;75.90;;;;;;5070081;28;20035;-67
2021/05/09 05:32:16;;;;;;;2.80;1.55;;;10.80;75.80;;;;;;5070512;28;20158;-67
2021/05/09 05:34:42;;;;;;;1.50;1.40;;;11.00;75.70;;;;;;5069423;28;20029;-67
2021/05/09 05:37:08;;;;;;;1.75;1.63;;;11.20;75.60;;;;;;5069414;28;20025;-67
2021/05/09 05:39:33;;;;;;;2.25;1.73;;;11.40;75.70;;;;;;5070148;28;20024;-67
2021/05/09 05:42:00;;;;;;;1.95;1.75;;;11.50;75.50;;;;;;5069633;28;20485;-67
2021/05/09 05:44:26;;;;;;;1.67;1.35;;;11.60;75.40;;;;;;5068921;28;20086;-67
2021/05/09 05:46:51;;;;;;;3.63;1.70;;;11.80;75.20;;;;;;5052407;28;20040;-67
2021/05/09 05:49:17;;;;;;;1.70;1.60;;;11.80;75.00;;;;;;5052211;28;20074;-68
2021/05/09 05:51:42;;;;;;;1.70;1.60;;;11.90;75.00;;;;;;5069016;28;20034;-68
2021/05/09 05:54:08;;;;;;;2.05;1.83;;;12.00;74.80;;;;;;5049779;28;21133;-67
2021/05/09 05:56:34;;;;;;;1.60;1.50;;;12.10;74.70;;;;;;5064797;28;20037;-67
2021/05/09 05:58:59;;;;;;;1.83;1.60;;;12.10;74.60;;;;;;5051224;28;20024;-67
2021/05/09 06:01:25;;;;;;;1.80;1.67;;;12.20;74.80;;;;;;5070017;28;20048;-67
2021/05/09 06:03:50;;;;;;;1.52;1.42;;;12.20;74.60;;;;;;5068810;28;20041;-67
2021/05/09 06:06:16;;;;;;;1.40;1.27;;;12.30;74.60;;;;;;5069245;28;20029;-67
2021/05/09 06:08:42;;;;;;;1.75;1.65;;;12.30;74.50;;;;;;5068956;28;20086;-67
2021/05/09 06:11:08;;;;;;;1.50;1.40;;;12.40;74.40;;;;;;5051663;28;20029;-67
2021/05/09 06:13:33;;;;;;;2.88;1.58;;;12.50;74.50;;;;;;5069461;28;20085;-67
2021/05/09 06:15:59;;;;;;;1.40;1.30;;;12.50;74.20;;;;;;5061045;28;20025;-67
2021/05/09 06:18:25;;;;;;;1.63;1.52;;;12.60;74.00;;;;;;5069570;28;20409;-67
2021/05/09 06:20:51;;;;;;;1.80;1.40;;;12.70;73.90;;;;;;5069243;28;20031;-67
2021/05/09 06:23:21;;;;;;;3.88;1.40;;;12.90;73.70;;;;;;5069475;28;20039;-67
2021/05/09 06:25:47;;;;;;;1.55;1.33;;;13.10;73.80;;;;;;5067767;28;20107;-67
2021/05/09 06:28:12;;;;;;;3.28;1.48;;;13.20;73.60;;;;;;5069635;28;20104;-67
2021/05/09 06:30:38;;;;;;;1.90;1.30;;;13.40;73.40;;;;;;5068217;28;20028;-67
2021/05/09 06:33:04;;;;;;;1.60;1.50;;;13.50;73.00;;;;;;5070201;28;20081;-67
2021/05/09 06:35:31;;;;;;;2.63;1.40;;;13.60;72.90;;;;;;5068239;28;20017;-67
2021/05/09 06:37:57;;;;;;;2.35;1.35;;;13.70;72.80;;;;;;5051290;28;20145;-68
2021/05/09 06:40:23;;;;;;;2.90;1.80;;;14.00;72.80;;;;;;5065672;28;20524;-67
2021/05/09 06:42:59;;;;;;;1.50;1.40;;;14.20;72.70;;;;;;5068886;28;20487;-68
2021/05/09 06:45:28;;;;;;;4.05;1.70;;;14.50;72.70;;;;;;5068691;28;20025;-67
2021/05/09 06:47:55;;;;;;;1.65;1.50;;;14.90;72.60;;;;;;5073380;28;20031;-67
2021/05/09 06:50:21;;;;;;;1.77;1.40;;;15.40;72.30;;;;;;5073267;28;20024;-67
2021/05/09 06:52:46;;;;;;;1.55;1.30;;;15.80;71.80;;;;;;5071187;28;20499;-67
2021/05/09 06:55:12;;;;;;;4.20;1.20;;;15.90;71.20;;;;;;5070793;28;20121;-67
2021/05/09 06:57:39;;;;;;;1.50;1.40;;;16.20;70.80;;;;;;5070244;28;20036;-67
2021/05/09 07:00:07;;;;;;;1.38;1.27;;;16.60;70.70;;;;;;5071563;28;20052;-67
2021/05/09 07:02:33;;;;;;;1.63;1.30;;;17.10;70.30;;;;;;5071893;28;20481;-67
2021/05/09 07:04:59;;;;;;;1.73;0.90;;;17.60;69.50;;;;;;5067517;28;20024;-67
2021/05/09 07:07:25;;;;;;;4.05;1.08;;;18.20;68.80;;;;;;5071729;28;20040;-67
2021/05/09 07:09:50;;;;;;;3.13;1.00;;;18.80;67.90;;;;;;5072128;28;20044;-67
2021/05/09 07:12:16;;;;;;;2.38;1.30;;;19.40;66.90;;;;;;5072955;28;20052;-67
2021/05/09 07:14:42;;;;;;;1.45;1.25;;;19.80;65.50;;;;;;5069014;28;20041;-67
2021/05/09 07:17:08;;;;;;;1.05;0.95;;;20.20;64.30;;;;;;5071722;28;20485;-67
2021/05/09 07:19:34;;;;;;;1.38;1.27;;;20.40;63.30;;;;;;5071430;28;20082;-66
2021/05/09 07:22:01;;;;;;;1.83;1.70;;;20.60;62.50;;;;;;5072725;28;20472;-67
2021/05/09 07:24:27;;;;;;;1.35;1.10;;;20.90;62.00;;;;;;5072425;28;20441;-66
2021/05/09 07:26:52;;;;;;;1.33;1.20;;;21.20;61.80;;;;;;5072096;28;20107;-67
2021/05/09 07:29:18;;;;;;;1.83;1.10;;;21.70;61.60;;;;;;5054355;28;20032;-66
2021/05/09 07:31:44;;;;;;;2.33;1.10;;;22.10;60.00;;;;;;5072592;28;20508;-67
2021/05/09 07:34:10;;;;;;;5.00;1.10;;;22.30;59.00;;;;;;5069834;28;20098;-67
2021/05/09 07:36:38;;;;;;;3.03;0.90;;;22.60;58.60;;;;;;5071865;28;20028;-67
2021/05/09 07:39:04;;;;;;;2.40;1.15;;;22.80;57.90;;;;;;5071979;28;20496;-67
2021/05/09 07:41:30;;;;;;;1.70;1.33;;;23.30;58.30;;;;;;5071109;28;20085;-67
2021/05/09 07:43:56;;;;;;;1.20;1.10;;;24.00;57.60;;;;;;5063202;28;20029;-67
2021/05/09 07:46:21;;;;;;;1.35;1.05;;;24.50;55.90;;;;;;5072090;28;20473;-68
2021/05/09 07:48:47;;;;;;;3.22;1.00;;;24.80;54.90;;;;;;5072524;28;20093;-67
2021/05/09 07:51:13;;;;;;;0.95;0.85;;;25.10;53.90;;;;;;5071645;28;20580;-67
2021/05/09 07:53:39;;;;;;;2.03;1.00;;;25.40;53.60;;;;;;5072464;28;20035;-66
2021/05/09 07:56:05;;;;;;;1.10;1.00;;;25.60;52.70;;;;;;5069578;28;20059;-68
2021/05/09 07:58:31;;;;;;;1.33;0.88;;;25.80;52.30;;;;;;5053434;28;20127;-67
2021/05/09 08:01:01;;;;;;;1.17;0.90;;;26.20;51.80;;;;;;5053309;28;20027;-67
2021/05/09 08:03:26;;;;;;;6.35;1.00;;;26.40;50.30;;;;;;5072236;28;20476;-68
2021/05/09 08:05:52;;;;;;;1.83;1.20;;;26.70;50.40;;;;;;5070078;28;20032;-67
2021/05/09 08:08:18;;;;;;;2.03;1.08;;;27.10;50.20;;;;;;5070181;28;20031;-67
2021/05/09 08:10:43;;;;;;;1.00;0.90;;;27.50;49.50;;;;;;5071895;28;20025;-67
2021/05/09 08:13:12;;;;;;;1.25;0.90;;;27.90;48.20;;;;;;5071432;28;20035;-67
2021/05/09 08:15:38;;;;;;;0.70;0.70;;;28.10;47.80;;;;;;5065901;28;20056;-68
2021/05/09 08:18:04;;;;;;;0.90;0.85;;;28.60;47.00;;;;;;5071098;28;20040;-67
2021/05/09 08:20:30;;;;;;;0.98;0.90;;;28.90;46.60;;;;;;5072060;28;20411;-66
2021/05/09 08:22:56;;;;;;;0.80;0.80;;;29.50;46.00;;;;;;5072057;28;20024;-66
2021/05/09 08:25:22;;;;;;;1.00;0.70;;;30.10;45.30;;;;;;5061191;28;20400;-66
2021/05/09 08:27:49;;;;;;;3.28;0.90;;;30.70;44.80;;;;;;5070923;28;20028;-67
2021/05/09 08:30:16;;;;;;;2.58;0.63;;;31.30;43.20;;;;;;5071405;28;20108;-67
2021/05/09 08:32:42;;;;;;;0.82;0.82;;;31.30;41.90;;;;;;5069308;28;20035;-66
2021/05/09 08:35:10;;;;;;;1.00;0.90;;;31.20;41.10;;;;;;5064972;28;20107;-67
2021/05/09 08:37:37;;;;;;;1.00;0.85;;;31.20;41.50;;;;;;5070199;28;20361;-67
2021/05/09 08:40:04;;;;;;;1.10;1.00;;;31.30;41.10;;;;;;5069801;28;20051;-67
2021/05/09 08:42:31;;;;;;;3.53;1.00;;;31.50;40.30;;;;;;5070032;28;20388;-67
2021/05/09 08:44:56;;;;;;;2.58;0.70;;;31.90;40.50;;;;;;5069201;28;20021;-67
2021/05/09 08:47:22;;;;;;;3.70;0.60;;;32.60;40.40;;;;;;5070392;28;20028;-67
2021/05/09 08:49:49;;;;;;;4.57;0.70;;;33.00;39.50;;;;;;5051847;28;20031;-67
2021/05/09 08:52:20;;;;;;;1.92;0.80;;;33.50;39.10;;;;;;5071307;28;20692;-67
2021/05/09 08:54:46;;;;;;;0.88;0.82;;;33.90;37.90;;;;;;5066661;28;20111;-67
2021/05/09 08:57:12;;;;;;;0.80;0.80;;;34.20;38.10;;;;;;5052674;28;20073;-67
2021/05/09 08:59:38;;;;;;;1.27;0.80;;;34.50;37.50;;;;;;5044331;28;20024;-67
2021/05/09 09:02:03;;;;;;;0.70;0.70;;;34.80;36.90;;;;;;5070390;28;20025;-68
2021/05/09 09:04:46;;;;;;;1.65;0.70;;;34.90;36.40;;;;;;5069728;28;20028;-67
2021/05/09 09:07:12;;;;;;;1.13;0.50;;;35.30;35.90;;;;;;5066450;28;20029;-67
2021/05/09 09:09:41;;;;;;;0.70;0.70;;;35.70;35.60;;;;;;5070136;28;20031;-67
2021/05/09 09:12:08;;;;;;;1.02;0.50;;;36.10;34.80;;;;;;5071047;28;20395;-67
2021/05/09 09:14:33;;;;;;;1.27;0.40;;;36.00;34.40;;;;;;5063767;28;20116;-67
2021/05/09 09:17:08;;;;;;;0.77;0.60;;;36.10;34.20;;;;;;5070489;28;20425;-68
2021/05/09 09:19:34;;;;;;;1.25;0.73;;;36.20;33.70;;;;;;5067722;28;20115;-67
2021/05/09 09:21:59;;;;;;;2.60;0.50;;;36.30;33.30;;;;;;5068863;28;20463;-68
2021/05/09 09:24:25;;;;;;;0.60;0.60;;;36.20;33.10;;;;;;5065991;28;20029;-67
2021/05/09 09:26:52;;;;;;;0.57;0.57;;;36.20;33.30;;;;;;5066878;28;20056;-68
2021/05/09 09:29:33;;;;;;;1.92;1.67;;;36.40;32.70;;;;;;5049085;28;20554;-67
2021/05/09 09:32:01;;;;;;;1.65;0.70;;;36.60;32.60;;;;;;5069489;28;20052;-68
2021/05/09 09:34:50;;;;;;;0.57;0.57;;;36.80;32.50;;;;;;5068555;28;20020;-68
2021/05/09 09:37:16;;;;;;;1.00;0.88;;;36.70;32.80;;;;;;5067346;28;20028;-69
2021/05/09 09:39:55;;;;;;;0.93;0.57;;;36.60;32.50;;;;;;5065051;28;20024;-71
2021/05/09 09:42:44;;;;;;;1.08;0.60;;;36.50;31.70;;;;;;5050289;28;20025;-70
2021/05/09 09:45:13;;;;;;;1.97;0.83;;;36.30;32.30;;;;;;5068159;28;20012;-72
2021/05/09 09:47:54;;;;;;;0.60;0.52;;;36.10;31.60;;;;;;5069457;28;20043;-71
2021/05/09 09:50:46;;;;;;;1.25;0.80;;;35.90;31.50;;;;;;5052780;28;20017;-71
2021/05/09 09:53:27;;;;;;;1.15;0.80;;;35.70;31.90;;;;;;5070284;28;20038;-70
2021/05/09 09:56:11;;;;;;;0.80;0.50;;;35.60;31.80;;;;;;5069787;28;20051;-71
2021/05/09 09:58:57;;;;;;;1.67;0.95;;;35.50;31.50;;;;;;5066642;28;20032;-71
2021/05/09 10:01:30;;;;;;;0.52;0.52;;;35.50;32.10;;;;;;5061333;28;20048;-70
2021/05/09 10:04:00;;;;;;;1.15;0.57;;;35.40;31.90;;;;;;5063247;28;20032;-70
2021/05/09 10:06:27;;;;;;;2.53;1.88;;;35.30;32.00;;;;;;5070110;28;20017;-70
2021/05/09 10:08:54;;;;;;;2.17;0.95;;;35.10;31.20;;;;;;5052107;28;20483;-71
2021/05/09 10:11:20;;;;;;;2.70;0.75;;;34.80;31.50;;;;;;5070975;28;20384;-70
2021/05/09 10:13:47;;;;;;;0.77;0.77;;;34.50;31.30;;;;;;5138464;22;20054;-70
2021/05/09 10:16:14;;;;;;;1.13;0.80;;;34.20;31.40;;;;;;5048302;28;20020;-70
2021/05/09 10:18:45;;;;;;;5.07;2.33;;;33.80;31.20;;;;;;5069240;28;20429;-69
2021/05/09 10:21:12;;;;;;;2.78;2.13;;;33.50;31.40;;;;;;5070114;28;20056;-69
2021/05/09 10:24:07;;;;;;;2.03;0.82;;;33.30;31.70;;;;;;5055592;28;20117;-70
2021/05/09 10:26:44;;;;;;;2.75;0.65;;;33.10;31.90;;;;;;5022574;28;20033;-70
2021/05/09 10:29:39;;;;;;;0.40;0.40;;;32.90;32.10;;;;;;5036427;28;20082;-71
2021/05/09 10:32:18;;;;;;;0.70;0.50;;;32.80;32.50;;;;;;5046822;28;20652;-70
2021/05/09 10:37:44;;;;;;;1.85;0.50;;;33.00;32.50;;;;;;5049859;28;20060;-70
2021/05/09 10:40:30;;;;;;;0.80;0.50;;;32.90;32.10;;;;;;5050073;28;20342;-70
2021/05/09 10:43:02;;;;;;;1.73;0.47;;;32.50;32.20;;;;;;5044944;28;20037;-69
2021/05/09 10:45:38;;;;;;;0.80;0.52;;;32.40;32.20;;;;;;5058576;28;20111;-69
2021/05/09 10:48:13;;;;;;;3.22;0.90;;;32.30;32.50;;;;;;5029652;28;20068;-70
2021/05/09 10:50:40;;;;;;;2.35;0.60;;;32.10;31.50;;;;;;5032670;28;20124;-70
2021/05/09 10:53:05;;;;;;;2.70;0.60;;;31.80;32.10;;;;;;5049825;28;20540;-70
2021/05/09 10:55:42;;;;;;;2.38;0.65;;;31.70;32.50;;;;;;5048890;28;20167;-71
2021/05/09 10:58:10;;;;;;;1.20;0.63;;;31.50;32.00;;;;;;5049354;28;20017;-70
2021/05/09 11:01:01;;;;;;;3.00;0.75;;;31.40;33.20;;;;;;5047580;28;20036;-70
2021/05/09 11:03:36;;;;;;;1.83;0.75;;;31.50;33.40;;;;;;5011177;28;20447;-70
2021/05/09 11:06:08;;;;;;;1.05;0.70;;;31.30;32.40;;;;;;5047893;28;20020;-70
2021/05/09 11:08:51;;;;;;;1.42;0.60;;;31.40;32.70;;;;;;5049427;28;20420;-71
2021/05/09 11:11:26;;;;;;;1.05;0.50;;;31.40;32.20;;;;;;5029720;28;20541;-70
2021/05/09 11:14:00;;;;;;;0.95;0.50;;;31.30;32.30;;;;;;5032120;28;20037;-70
2021/05/09 11:16:27;;;;;;;2.83;0.88;;;31.20;32.50;;;;;;5044691;28;20537;-70
2021/05/09 11:18:56;;;;;;;0.68;0.50;;;31.20;32.70;;;;;;5049744;28;20484;-70
2021/05/09 11:21:23;;;;;;;2.50;1.35;;;31.10;32.80;;;;;;5049642;28;20039;-70
2021/05/09 11:23:49;;;;;;;1.30;1.20;;;31.00;33.20;;;;;;5048776;28;20091;-70
2021/05/09 11:26:26;;;;;;;2.85;0.82;;;31.00;33.40;;;;;;5048624;28;20021;-70
2021/05/09 11:29:28;;;;;;;1.42;0.47;;;31.00;32.50;;;;;;5048696;28;20087;-70
2021/05/09 11:31:59;;;;;;;1.40;0.80;;;30.80;32.60;;;;;;5010848;28;20068;-69
2021/05/09 11:34:26;;;;;;;2.78;0.47;;;30.60;32.50;;;;;;5052297;28;20104;-70
2021/05/09 11:36:57;;;;;;;2.22;1.05;;;30.40;32.50;;;;;;5046486;28;20492;-70
2021/05/09 11:39:41;;;;;;;0.95;0.60;;;30.40;32.30;;;;;;5052994;28;20037;-70
2021/05/09 11:42:08;;;;;;;1.67;0.43;;;30.30;32.00;;;;;;5051875;28;20025;-70
2021/05/09 11:44:42;;;;;;;0.50;0.50;;;30.30;33.10;;;;;;5045508;28;20022;-70
2021/05/09 11:47:21;;;;;;;0.65;0.57;;;30.40;32.20;;;;;;5049816;28;20021;-70
2021/05/09 11:49:48;;;;;;;1.40;0.60;;;30.30;31.70;;;;;;5015640;28;20028;-71
2021/05/09 11:52:19;;;;;;;0.80;0.60;;;30.30;32.30;;;;;;5044368;28;20028;-70
2021/05/09 11:55:09;;;;;;;3.03;0.63;;;30.30;31.80;;;;;;5031722;28;20036;-70
2021/05/09 11:57:35;;;;;;;0.73;0.68;;;30.30;32.20;;;;;;5052409;28;20036;-70
2021/05/09 12:00:17;;;;;;;1.42;0.50;;;30.30;32.50;;;;;;5052644;28;20025;-70
2021/05/09 12:02:47;;;;;;;5.70;1.02;;;30.40;31.80;;;;;;5052787;28;20036;-70
2021/05/09 12:05:18;;;;;;;1.23;0.98;;;30.40;32.20;;;;;;5032101;28;20408;-70
2021/05/09 12:07:51;;;;;;;2.38;0.70;;;30.50;32.40;;;;;;5043032;28;20028;-69
2021/05/09 12:10:26;;;;;;;3.30;0.60;;;30.60;32.30;;;;;;5052845;28;20029;-70
2021/05/09 12:12:57;;;;;;;1.67;0.63;;;30.70;32.00;;;;;;5032751;28;20028;-70
2021/05/09 12:15:23;;;;;;;0.57;0.57;;;30.70;31.60;;;;;;5043882;28;20432;-70
2021/05/09 12:17:54;;;;;;;0.82;0.40;;;30.70;31.80;;;;;;5052419;28;20079;-70
2021/05/09 12:20:26;;;;;;;2.88;0.80;;;30.80;31.60;;;;;;5052809;28;20056;-71
2021/05/09 12:22:53;;;;;;;1.10;0.40;;;30.90;31.60;;;;;;5044291;28;20481;-70
2021/05/09 12:25:40;;;;;;;1.95;0.68;;;31.00;32.10;;;;;;5047251;28;20107;-70
2021/05/09 12:28:26;;;;;;;1.10;0.50;;;31.10;31.40;;;;;;5051950;28;20082;-70
2021/05/09 12:30:52;;;;;;;1.40;0.43;;;31.10;31.10;;;;;;5052110;28;20118;-70
2021/05/09 12:33:31;;;;;;;0.45;0.45;;;31.10;32.00;;;;;;5052621;28;20056;-70
2021/05/09 12:35:59;;;;;;;0.60;0.60;;;31.10;31.30;;;;;;5051288;28;20036;-70
2021/05/09 12:38:29;;;;;;;2.72;0.40;;;31.10;31.30;;;;;;5051563;28;20039;-70
2021/05/09 12:41:24;;;;;;;0.35;0.35;;;31.10;31.20;;;;;;5051970;28;20025;-70
2021/05/09 12:43:51;;;;;;;1.02;0.60;;;31.20;31.50;;;;;;5030008;28;20045;-70
2021/05/09 12:46:41;;;;;;;1.88;0.40;;;31.20;31.10;;;;;;5033736;28;20507;-69
2021/05/09 12:49:28;;;;;;;1.17;0.50;;;31.30;31.10;;;;;;5051702;28;20044;-70
2021/05/09 12:52:03;;;;;;;0.50;0.50;;;31.40;31.20;;;;;;5051364;28;20362;-70
2021/05/09 12:54:43;;;;;;;1.60;0.50;;;31.40;31.60;;;;;;5049356;28;20033;-70
2021/05/09 12:57:18;;;;;;;1.65;0.50;;;31.30;31.00;;;;;;5026414;28;20065;-71
2021/05/09 12:59:45;;;;;;;0.95;0.40;;;31.20;31.10;;;;;;5051387;28;20186;-69